createdAt,value
2018-06-19T00:01:50.730Z,75.60
2018-06-19T00:05:54.248Z,77.50
2018-06-19T00:09:57.633Z,77.60
2018-06-19T00:18:07.951Z,76.50
2018-06-19T00:22:11.299Z,78.00
2018-06-19T00:26:14.664Z,77.30
2018-06-19T00:30:18.040Z,76.60
2018-06-19T00:34:21.398Z,75.90
2018-06-19T00:38:24.760Z,77.80
2018-06-19T00:42:28.112Z,75.80
2018-06-19T00:46:32.049Z,76.50
2018-06-19T00:50:35.390Z,76.50
2018-06-19T00:54:38.743Z,76.30
2018-06-19T00:58:42.398Z,78.30
2018-06-19T01:02:45.764Z,76.70
2018-06-19T01:06:49.122Z,76.50
2018-06-19T01:10:52.464Z,77.20
2018-06-19T01:14:55.816Z,77.60
2018-06-19T01:18:59.198Z,80.90
2018-06-19T01:23:02.571Z,78.60
2018-06-19T01:27:05.914Z,79.10
2018-06-19T01:31:09.262Z,78.00
2018-06-19T01:35:12.630Z,78.20
2018-06-19T01:39:15.988Z,77.60
2018-06-19T01:43:19.346Z,80.10
2018-06-19T01:47:22.744Z,77.80
2018-06-19T01:51:26.102Z,78.50
2018-06-19T01:55:29.463Z,76.90
2018-06-19T01:59:32.819Z,78.90
2018-06-19T02:03:36.160Z,76.90
2018-06-19T02:07:39.479Z,77.00
2018-06-19T02:15:45.943Z,76.20
2018-06-19T02:19:49.335Z,76.70
2018-06-19T02:23:53.533Z,76.20
2018-06-19T02:27:56.865Z,76.70
2018-06-19T02:32:00.223Z,76.20
2018-06-19T02:36:03.583Z,77.80
2018-06-19T02:40:07.020Z,76.90
2018-06-19T02:44:10.388Z,76.30
2018-06-19T02:48:13.727Z,76.50
2018-06-19T02:52:17.082Z,76.30
2018-06-19T02:56:20.447Z,77.40
2018-06-19T03:00:23.847Z,77.10
2018-06-19T03:04:27.175Z,76.80
2018-06-19T03:08:30.525Z,77.50
2018-06-19T03:12:33.885Z,77.00
2018-06-19T03:16:37.289Z,77.60
2018-06-19T03:20:40.659Z,79.60
2018-06-19T03:24:44.008Z,76.00
2018-06-19T03:28:47.351Z,76.30
2018-06-19T03:32:50.691Z,76.90
2018-06-19T03:36:54.059Z,81.30
2018-06-19T03:40:57.411Z,76.20
2018-06-19T03:45:00.766Z,78.50
2018-06-19T03:49:04.562Z,78.60
2018-06-19T03:53:07.923Z,79.70
2018-06-19T03:57:11.276Z,79.40
2018-06-19T04:01:14.657Z,80.60
2018-06-19T04:05:18.019Z,78.80
2018-06-19T04:09:21.372Z,78.50
2018-06-19T04:13:24.728Z,78.10
2018-06-19T04:17:28.618Z,77.00
2018-06-19T04:21:31.961Z,77.80
2018-06-19T04:25:35.336Z,80.30
2018-06-19T04:29:38.660Z,78.00
2018-06-19T04:33:42.095Z,80.30
2018-06-19T04:37:45.450Z,77.40
2018-06-19T04:41:48.846Z,78.70
2018-06-19T04:45:52.207Z,79.30
2018-06-19T04:49:55.547Z,78.30
2018-06-19T04:53:59.040Z,81.60
2018-06-19T04:58:02.404Z,80.50
2018-06-19T05:02:05.755Z,80.10
2018-06-19T05:06:09.097Z,78.90
2018-06-19T05:10:12.451Z,78.30
2018-06-19T05:14:15.822Z,80.40
2018-06-19T05:18:19.266Z,80.00
2018-06-19T05:22:22.607Z,82.30
2018-06-19T05:26:25.947Z,79.30
2018-06-19T05:30:29.360Z,79.70
2018-06-19T05:34:32.628Z,79.00
2018-06-19T05:38:35.953Z,81.00
2018-06-19T05:42:39.292Z,79.60
2018-06-19T05:46:42.622Z,78.30
2018-06-19T05:50:46.149Z,79.90
2018-06-19T05:54:49.521Z,79.00
2018-06-19T05:58:53.096Z,80.30
2018-06-19T06:02:56.424Z,79.80
2018-06-19T06:06:59.753Z,79.50
2018-06-19T06:11:03.145Z,79.90
2018-06-19T06:15:06.458Z,80.20
2018-06-19T06:19:09.803Z,80.20
2018-06-19T06:23:13.146Z,81.60
2018-06-19T06:27:16.492Z,78.70
2018-06-19T06:31:19.871Z,79.90
2018-06-19T06:35:23.171Z,80.70
2018-06-19T06:39:26.514Z,79.40
2018-06-19T06:43:29.936Z,80.10
2018-06-19T06:47:33.301Z,80.50
2018-06-19T06:51:36.667Z,80.30
2018-06-19T06:55:40.012Z,80.80
2018-06-19T06:59:43.372Z,80.20
2018-06-19T07:03:46.735Z,80.60
2018-06-19T07:07:50.068Z,80.80
2018-06-19T07:11:53.467Z,79.50
2018-06-19T07:15:56.831Z,79.20
2018-06-19T07:20:00.209Z,81.50
2018-06-19T07:24:03.564Z,79.60
2018-06-19T07:28:06.939Z,79.40
2018-06-19T07:32:10.312Z,79.10
2018-06-19T07:36:13.706Z,80.40
2018-06-19T07:40:17.052Z,80.90
2018-06-19T07:44:20.420Z,78.30
2018-06-19T07:48:23.782Z,79.50
2018-06-19T07:52:27.106Z,79.90
2018-06-19T07:56:30.451Z,79.30
2018-06-19T08:00:33.859Z,77.90
2018-06-19T08:04:37.216Z,78.10
2018-06-19T08:08:40.570Z,78.50
2018-06-19T08:12:43.900Z,78.90
2018-06-19T08:16:47.283Z,78.30
2018-06-19T08:20:50.656Z,78.60
2018-06-19T08:24:54.167Z,77.60
2018-06-19T08:28:57.507Z,79.00
2018-06-19T08:37:03.933Z,78.30
2018-06-19T08:41:07.287Z,78.30
2018-06-19T08:45:10.632Z,79.00
2018-06-19T08:49:14.002Z,79.00
2018-06-19T08:53:17.345Z,79.20
2018-06-19T08:57:20.721Z,78.20
2018-06-19T09:01:24.132Z,78.00
2018-06-19T09:05:27.545Z,78.20
2018-06-19T09:09:30.891Z,77.80
2018-06-19T09:13:34.300Z,77.40
2018-06-19T09:17:37.668Z,77.30
2018-06-19T09:21:41.029Z,78.00
2018-06-19T09:25:44.378Z,77.20
2018-06-19T09:29:47.743Z,78.80
2018-06-19T09:33:51.102Z,80.00
2018-06-19T09:37:54.491Z,77.80
2018-06-19T09:41:57.840Z,79.30
2018-06-19T09:46:01.297Z,80.00
2018-06-19T09:50:04.974Z,78.40
2018-06-19T09:54:08.304Z,78.40
2018-06-19T10:02:14.798Z,80.20
2018-06-19T10:06:18.223Z,80.00
2018-06-19T10:10:21.592Z,80.10
2018-06-19T10:14:24.906Z,79.00
2018-06-19T10:18:28.267Z,80.00
2018-06-19T10:22:31.607Z,80.80
2018-06-19T10:26:35.028Z,80.00
2018-06-19T10:30:38.399Z,82.30
2018-06-19T10:34:41.712Z,81.00
2018-06-19T10:38:45.044Z,80.50
2018-06-19T10:42:48.399Z,82.70
2018-06-19T10:46:51.723Z,83.10
2018-06-19T10:50:55.063Z,85.40
2018-06-19T10:54:58.481Z,81.20
2018-06-19T10:59:01.933Z,79.50
2018-06-19T11:03:05.279Z,84.00
2018-06-19T11:07:08.713Z,80.80
2018-06-19T11:11:12.127Z,83.30
2018-06-19T11:15:15.524Z,81.80
2018-06-19T11:19:19.054Z,82.70
2018-06-19T11:23:22.403Z,81.80
2018-06-19T11:27:25.832Z,82.80
2018-06-19T11:31:29.203Z,79.90
2018-06-19T11:35:32.543Z,79.30
2018-06-19T11:39:35.907Z,80.60
2018-06-19T11:43:39.302Z,79.60
2018-06-19T11:47:42.820Z,80.00
2018-06-19T11:51:46.219Z,79.40
2018-06-19T11:55:49.558Z,79.80
2018-06-19T11:59:52.919Z,78.80
2018-06-19T12:03:56.276Z,79.50
2018-06-19T12:07:59.799Z,79.40
2018-06-19T12:12:03.147Z,78.80
2018-06-19T12:16:06.504Z,79.30
2018-06-19T12:20:09.964Z,79.40
2018-06-19T12:24:13.300Z,79.10
2018-06-19T12:28:16.826Z,79.90
2018-06-19T12:32:20.159Z,80.30
2018-06-19T12:36:23.548Z,79.70
2018-06-19T12:40:26.883Z,80.00
2018-06-19T12:44:30.212Z,79.50
2018-06-19T12:48:33.571Z,79.20
2018-06-19T12:52:48.335Z,79.70
2018-06-19T12:56:51.657Z,78.80
2018-06-19T13:00:55.012Z,78.70
2018-06-19T13:05:09.846Z,78.20
2018-06-19T13:09:13.171Z,78.30
2018-06-19T13:13:29.123Z,79.20
2018-06-19T13:17:43.723Z,79.00
2018-06-19T13:25:50.604Z,78.60
2018-06-19T13:30:07.743Z,78.50
2018-06-19T13:34:11.078Z,78.20
2018-06-19T13:38:14.403Z,79.20
2018-06-19T13:42:30.650Z,78.40
2018-06-19T13:46:33.980Z,78.80
2018-06-19T13:50:37.336Z,78.90
2018-06-19T13:54:40.687Z,78.30
2018-06-19T13:58:44.031Z,77.90
2018-06-19T14:02:47.410Z,77.80
2018-06-19T14:06:50.747Z,78.50
2018-06-19T14:11:05.379Z,77.60
2018-06-19T14:15:08.743Z,77.90
2018-06-19T14:19:12.125Z,77.70
2018-06-19T14:23:15.568Z,77.50
2018-06-19T14:27:18.905Z,77.50
2018-06-19T14:31:22.364Z,78.10
2018-06-19T14:35:25.769Z,77.40
2018-06-19T14:39:29.066Z,77.40
2018-06-19T14:43:32.483Z,77.40
2018-06-19T14:47:35.856Z,77.40
2018-06-19T14:51:39.208Z,77.60
2018-06-19T14:55:42.547Z,77.60
2018-06-19T14:59:46.109Z,77.60
2018-06-19T15:03:49.484Z,77.30
2018-06-19T15:07:54.052Z,77.30
2018-06-19T15:11:57.422Z,77.50
2018-06-19T15:16:00.746Z,77.50
2018-06-19T15:24:07.197Z,77.30
2018-06-19T15:28:10.538Z,77.40
2018-06-19T15:32:13.867Z,77.40
2018-06-19T15:36:17.206Z,77.30
2018-06-19T15:40:20.603Z,77.30
2018-06-19T15:44:24.140Z,77.30
2018-06-19T15:48:27.551Z,77.70
2018-06-19T15:52:30.916Z,77.50
2018-06-19T15:56:34.263Z,77.40
2018-06-19T16:00:37.670Z,77.40
2018-06-19T16:04:41.038Z,77.40
2018-06-19T16:08:44.387Z,77.20
2018-06-19T16:12:47.788Z,77.30
2018-06-19T16:16:51.155Z,77.40
2018-06-19T16:20:54.492Z,77.20
2018-06-19T16:24:57.836Z,77.20
2018-06-19T16:29:01.184Z,77.30
2018-06-19T16:33:04.536Z,77.30
2018-06-19T16:37:07.876Z,77.20
2018-06-19T16:41:11.208Z,77.60
2018-06-19T16:45:14.612Z,77.50
2018-06-19T16:49:18.009Z,77.80
2018-06-19T16:53:21.627Z,77.80
2018-06-19T16:57:25.031Z,78.40
2018-06-19T17:01:28.458Z,78.00
2018-06-19T17:05:31.783Z,77.80
2018-06-19T17:09:35.201Z,78.10
2018-06-19T17:13:38.567Z,78.10
2018-06-19T17:17:42.109Z,78.40
2018-06-19T17:21:45.675Z,78.20
2018-06-19T17:25:49.118Z,78.30
2018-06-19T17:29:52.504Z,78.20
2018-06-19T17:33:56.056Z,78.10
2018-06-19T17:37:59.380Z,78.40
2018-06-19T17:42:03.346Z,79.00
2018-06-19T17:46:07.979Z,79.30
2018-06-19T17:50:12.130Z,79.20
2018-06-19T17:54:17.036Z,79.20
2018-06-19T17:58:21.015Z,80.70
2018-06-19T18:02:25.303Z,79.50
2018-06-19T18:06:29.245Z,79.40
2018-06-19T18:10:34.485Z,78.80
2018-06-19T18:14:38.267Z,79.10
2018-06-19T18:18:42.712Z,80.40
2018-06-19T18:22:46.667Z,78.90
2018-06-19T18:26:50.471Z,79.00
2018-06-19T18:30:55.312Z,79.20
2018-06-19T18:34:59.429Z,79.50
2018-06-19T18:39:02.928Z,79.90
2018-06-19T18:43:06.362Z,79.20
2018-06-19T18:47:09.727Z,78.80
2018-06-19T18:51:13.195Z,79.10
2018-06-19T18:55:16.515Z,78.90
2018-06-19T18:59:19.852Z,82.00
2018-06-19T19:03:23.607Z,80.70
2018-06-19T19:07:33.514Z,79.90
2018-06-19T19:11:37.304Z,79.50
2018-06-19T19:15:46.059Z,80.30
2018-06-19T19:19:50.415Z,82.50
2018-06-19T19:23:54.170Z,81.00
2018-06-19T19:28:05.318Z,80.00
2018-06-19T19:32:09.428Z,80.80
2018-06-19T19:36:18.218Z,84.60
2018-06-19T19:40:22.047Z,79.70
2018-06-19T19:44:25.388Z,80.00
2018-06-19T19:48:35.091Z,79.90
2018-06-19T19:52:38.916Z,80.50
2018-06-19T19:56:48.413Z,79.60
2018-06-19T20:00:51.963Z,82.80
2018-06-19T20:04:56.432Z,80.00
2018-06-19T20:09:06.943Z,79.40
2018-06-19T20:13:10.453Z,79.80
2018-06-19T20:17:13.915Z,79.20
2018-06-19T20:21:17.761Z,79.80
2018-06-19T20:25:21.555Z,79.80
2018-06-19T20:29:25.464Z,79.80
2018-06-19T20:33:30.514Z,79.70
2018-06-19T20:37:33.957Z,80.50
2018-06-19T20:41:37.566Z,80.20
2018-06-19T20:45:41.746Z,81.50
2018-06-19T20:49:46.565Z,80.20
2018-06-19T20:57:53.563Z,80.80
2018-06-19T21:01:56.938Z,81.90
2018-06-19T21:06:00.781Z,81.60
2018-06-19T21:10:04.206Z,81.70
2018-06-19T21:14:07.596Z,80.60
2018-06-19T21:18:11.090Z,80.40
2018-06-19T21:22:14.970Z,80.00
2018-06-19T21:26:18.355Z,81.00
2018-06-19T21:30:23.584Z,80.50
2018-06-19T21:34:26.988Z,81.00
2018-06-19T21:38:30.443Z,80.40
2018-06-19T21:42:33.840Z,81.60
2018-06-19T21:46:37.192Z,80.00
2018-06-19T21:50:40.615Z,83.30
2018-06-19T21:54:44.045Z,80.40
2018-06-19T21:58:47.380Z,80.10
2018-06-19T22:02:50.834Z,80.20
2018-06-19T22:06:55.899Z,80.20
2018-06-19T22:10:59.320Z,79.70
2018-06-19T22:15:02.672Z,79.80
2018-06-19T22:19:06.078Z,79.60
2018-06-19T22:23:09.444Z,80.00
2018-06-19T22:27:12.819Z,80.30
2018-06-19T22:31:16.197Z,79.50
2018-06-19T22:35:19.543Z,79.90
2018-06-19T22:39:22.875Z,80.00
2018-06-19T22:43:26.248Z,80.00
2018-06-19T22:47:29.639Z,80.20
2018-06-19T22:51:33.081Z,80.40
2018-06-19T22:55:36.435Z,80.10
2018-06-19T22:59:39.779Z,79.80
2018-06-19T23:03:43.120Z,80.30
2018-06-19T23:07:46.471Z,81.30
2018-06-19T23:11:49.927Z,80.10
2018-06-19T23:15:53.266Z,80.50
2018-06-19T23:19:56.607Z,80.60
2018-06-19T23:23:59.963Z,80.10
2018-06-19T23:28:03.324Z,80.40
2018-06-19T23:32:06.949Z,80.60
2018-06-19T23:36:10.327Z,80.60
2018-06-19T23:40:13.703Z,80.30
2018-06-19T23:44:17.058Z,80.20
2018-06-19T23:48:20.411Z,80.30
2018-06-19T23:52:23.756Z,81.10
2018-06-19T23:56:27.111Z,82.80
